Relampago, Texas
Current Conditions -  °F | °C
As of 2:35 PM on Wednesday 26 Nov 2014 (Local Time) from KT65 Reporting Station
Clear Clear  
Wind Chill: 75°   Ceiling: Unl
Heat Index: 75°   Visibility: 10mi
Dew Point: 39°   Wind: 7mph
Humidity: 27%   Direction: 210°SSW
Pressure: 30.22"   Gusts: NA
Location:  26.1456°N, 97.91°W
Report Text: KT65 262035Z AUTO 21006KT 10SM CLR 24/04 A3022 RMK AO2 T02410039
Loading
Personal Weather Stations






























Interactive Weather Map New forecast layout! Learn more

10-Day Weather Forecast

Advertisements
Track Severe Weather on mobile